• Join FlightAware (Why Join?)
  • Login
  • US Flag 
01:39AM EDT


 

Airport Tracker/Info


-or-


 

Live Flight TrackerFlight Track Log ✈ N109LU ✈ 15-Jul-2014 ✈ KBCT - KSUA

Flight Track Log - Related Links

Times and Time Zones

All times are in EDT time to prevent confusion due to time zone crossing. See the N109LU flight status page for this flight to view local times or setup timezone preferences in your user account.

Time Position Orientation Groundspeed Altitude Reporting Facility
EDT Latitude Longitude Course Direction KTS MPH feet Rate Location/Type
09:41AM 26.4081 -80.0711 360° North 84 97 1,500  Level Miami Center
09:42AM 26.4331 -80.0722 358° North 90 104 2,100 600 Climbing Miami Center
09:43AM 26.4589 -80.0778 349° North 89 102 2,800 480 Climbing Miami Center
09:44AM 26.4875 -80.0836 350° North 100 115 3,200 480 Climbing Miami Center
09:45AM 26.5554 -80.0833 North  Level FlightAware Approximate
09:45AM 26.5147 -80.0908 347° North 100 115 3,800  Level Miami Center
09:46AM 26.5850 -80.0833 360° North  Level FlightAware Approximate
09:46AM 26.5417 -80.1014 341° North 97 112 4,400  Level Miami Center
09:47AM 26.5672 -80.1114 341° North 97 112 4,800 240 Climbing Miami Center
09:48AM 26.5958 -80.1208 344° North 105 121 5,000 60 Climbing Miami Center
09:49AM 26.6303 -80.1342 341° North 120 138 5,000 -60 Level Miami Center
09:50AM 26.6619 -80.1469 340° North 120 138 4,900 -60 Descending Miami Center
09:51AM 26.6944 -80.1564 345° North 120 138 4,900  Level Miami Center
09:52AM 26.7261 -80.1761 331° Northwest 120 138 4,900  Level Miami Center
09:53AM 26.7597 -80.1847 347° North 122 140 5,000  Climbing Miami Center
09:54AM 26.7922 -80.1956 343° North 122 140 4,900 -300 Descending Miami Center
09:55AM 26.8281 -80.2058 346° North 124 143 4,400 -540 Descending Miami Center
09:56AM 26.8653 -80.2181 344° North 129 148 3,800 -720 Descending Miami Center
09:57AM 26.9031 -80.2308 343° North 132 152 3,000 -420 Descending Miami Center
09:58AM 26.9356 -80.2417 343° North 131 151 3,000 -60 Level Miami Center
09:59AM 26.9689 -80.2467 352° North 121 139 2,900 -60 Descending Miami Center
10:00AM 26.9878 -80.2097 60° Northeast 128 147 2,900  Level Miami Center
10:01AM 27.0006 -80.1772 66° East 125 144 2,900  Level Miami Center
10:02AM 27.0144 -80.1394 68° East 125 144 3,000  Climbing Miami Center
10:03AM 27.0161 -80.0978 87° East 125 144 2,900  Descending Miami Center
10:04AM 27.0208 -80.0586 82° East 121 139 3,000  Climbing Miami Center
10:05AM 27.0508 -80.0456 21° North 124 143 3,000 -180 Level Miami Center
10:06AM 27.0858 -80.0358 14° North 124 143 2,700 -480 Descending Miami Center
10:07AM 27.1161 -80.0386 355° North 118 136 2,100 -540 Descending Miami Center
10:08AM 27.1300 -80.0706 296° West 112 129 1,600 -300 Descending Miami Center
10:09AM 27.1372 -80.0978 287° West 100 115 1,600  Level Miami Center
10:10AM 27.1494 -80.1278 295° West 102 117 1,600 -300 Level Miami Center
10:11AM 27.1575 -80.1575 287° West 98 113 1,100 -480 Descending Miami Center
10:12AM 27.1658 -80.1850 289° West 90 104 700 -420 Descending Miami Center
10:14AM 27.1667 -80.2167 North  Level FlightAware Approximate
10:21AM 27.1817 -80.2213 North  Level Estimated
10:22AM 27.1817 -80.2213 North  Level Estimated